Impacts METAR Board
IDs:

KMSP - Minneapolis-St Paul, MN, US

Updated at: 1500 UTC 16 Feb 2019
Potential Impact None Slight Moderate High
Time 16/03Z 16/04Z 16/05Z 16/06Z 16/07Z 16/08Z 16/09Z 16/10Z 16/11Z 16/12Z 16/13Z 16/14Z 16/15Z
Temp6 6 4 2 1 1 -0 -0 2 -1 -0 2 3
Dewpt1 -0 -1 -2 -3 -4 -3 -4 -2 -3 -3 -1 -1
Altim30.15 30.14 30.14 30.16 30.18 30.17 30.17 30.15 30.17 30.17 30.16 30.17 30.17
VIS10 10 10 10 10 10 10 10 9 10 10 9 9
CIG-- -- -- 250 250 250 250 190 170 170 170 180 180
CoverFEWFEWSCTBKNBKNBKNBKNOVCOVCBKNBKNBKNBKN
FltCatVFRVFRVFRVFRVFRVFRVFRVFRVFRVFRVFRVFRVFR
WX--------------------------
WDir30026002402702400000000
WSpd4 6 0 4 3 3 0 0 0 0 0 0 0
WGst-- -- -- -- -- -- -- -- -- -- -- -- --
Raw hourly METARs
KMSP 160253Z 30004KT 10SM FEW250 M14/M17 A3015 RMK AO2 SLP231 T11441172 50008
KMSP 160353Z 26006KT 10SM FEW250 M14/M18 A3014 RMK AO2 SLP227 T11441178
KMSP 160453Z 00000KT 10SM SCT250 M16/M18 A3014 RMK AO2 SLP227 T11561183
KMSP 160553Z 24004KT 10SM BKN250 M17/M19 A3016 RMK AO2 SLP235 4/012 T11671189 11111 21167 410941194 53005
KMSP 160653Z 27003KT 10SM BKN250 M17/M19 A3018 RMK AO2 SLP242 T11721194
KMSP 160753Z 24003KT 10SM BKN250 M17/M20 A3017 RMK AO2 SLP238 T11721200
KMSP 160853Z 00000KT 10SM BKN250 M18/M19 A3017 RMK AO2 SLP238 T11781194 51004
KMSP 160953Z 00000KT 10SM OVC190 M18/M20 A3015 RMK AO2 SLP231 T11781200
KMSP 161053Z 00000KT 9SM OVC170 M17/M19 A3017 RMK AO2 SLP234 T11671189
KMSP 161153Z 00000KT 10SM BKN170 M18/M19 A3017 RMK AO2 SLP236 4/012 T11831194 11167 21183 56003
KMSP 161253Z 00000KT 10SM BKN170 M18/M19 A3016 RMK AO2 SLP234 I1000 T11781194
KMSP 161353Z 00000KT 9SM BKN180 M17/M18 A3017 RMK AO2 SLP238 T11671183
KMSP 161453Z 00000KT 9SM BKN180 M16/M18 A3017 RMK AO2 SLP237 I3000 T11611183 53001



Page loaded:  15:14 UTC  |   07:14 AM Pacific  |   08:14 AM Mountain  |   09:14 AM Central  |   10:14 AM Eastern

 

ADVISORIES

FORECASTS

FORECASTS

OBSERVATIONS

USER TOOLS

ABOUT US